sensor_id;sensor_type;location;lat;lon;timestamp;pressure;altitude;pressure_sealevel;temperature;humidity
8637;BME280;4356;49.068;8.658;2022-12-07T00:01:32;100031.78;;;17.36;39.52
8637;BME280;4356;49.068;8.658;2022-12-07T00:04:00;100029.94;;;17.37;39.53
8637;BME280;4356;49.068;8.658;2022-12-07T00:06:37;100027.81;;;17.32;39.85
8637;BME280;4356;49.068;8.658;2022-12-07T00:09:05;100034.72;;;17.35;39.87
8637;BME280;4356;49.068;8.658;2022-12-07T00:11:31;100037.44;;;17.35;39.67
8637;BME280;4356;49.068;8.658;2022-12-07T00:13:59;100025.31;;;17.31;39.59
8637;BME280;4356;49.068;8.658;2022-12-07T00:16:27;100024.91;;;17.27;39.99
8637;BME280;4356;49.068;8.658;2022-12-07T00:18:53;100022.19;;;17.27;40.06
8637;BME280;4356;49.068;8.658;2022-12-07T00:21:27;100030.53;;;17.32;39.89
8637;BME280;4356;49.068;8.658;2022-12-07T00:23:54;100023.03;;;17.28;39.84
8637;BME280;4356;49.068;8.658;2022-12-07T00:26:25;100026.38;;;17.30;39.99
8637;BME280;4356;49.068;8.658;2022-12-07T00:28:53;100025.75;;;17.28;39.65
8637;BME280;4356;49.068;8.658;2022-12-07T00:31:21;100030.34;;;17.27;39.89
8637;BME280;4356;49.068;8.658;2022-12-07T00:33:47;100027.63;;;17.27;39.82
8637;BME280;4356;49.068;8.658;2022-12-07T00:36:16;100028.69;;;17.26;39.59
8637;BME280;4356;49.068;8.658;2022-12-07T00:38:42;100032.22;;;17.27;39.55
8637;BME280;4356;49.068;8.658;2022-12-07T00:41:12;100020.31;;;17.21;39.85
8637;BME280;4356;49.068;8.658;2022-12-07T00:43:38;100020.09;;;17.23;39.76
8637;BME280;4356;49.068;8.658;2022-12-07T00:46:06;100016.16;;;17.19;39.77
8637;BME280;4356;49.068;8.658;2022-12-07T00:48:32;100015.72;;;17.22;39.75
8637;BME280;4356;49.068;8.658;2022-12-07T00:50:58;100019.28;;;17.22;39.87
8637;BME280;4356;49.068;8.658;2022-12-07T00:53:25;100018.22;;;17.23;39.83
8637;BME280;4356;49.068;8.658;2022-12-07T00:55:51;100019.50;;;17.21;39.65
8637;BME280;4356;49.068;8.658;2022-12-07T00:58:18;100014.25;;;17.19;39.91
8637;BME280;4356;49.068;8.658;2022-12-07T01:00:44;100010.94;;;17.17;39.83
8637;BME280;4356;49.068;8.658;2022-12-07T01:03:12;100022.41;;;17.19;39.58
8637;BME280;4356;49.068;8.658;2022-12-07T01:05:38;100018.88;;;17.19;39.99
8637;BME280;4356;49.068;8.658;2022-12-07T01:08:05;100017.41;;;17.16;39.68
8637;BME280;4356;49.068;8.658;2022-12-07T01:10:30;100010.31;;;17.09;39.76
8637;BME280;4356;49.068;8.658;2022-12-07T01:12:57;100021.81;;;17.17;39.69
8637;BME280;4356;49.068;8.658;2022-12-07T01:15:23;100025.34;;;17.18;39.75
8637;BME280;4356;49.068;8.658;2022-12-07T01:17:49;100024.31;;;17.19;39.51
8637;BME280;4356;49.068;8.658;2022-12-07T01:20:15;100019.28;;;17.16;39.74
8637;BME280;4356;49.068;8.658;2022-12-07T01:22:42;100020.34;;;17.15;39.85
8637;BME280;4356;49.068;8.658;2022-12-07T01:25:09;100019.50;;;17.14;39.52
8637;BME280;4356;49.068;8.658;2022-12-07T01:27:35;100027.63;;;17.14;39.76
8637;BME280;4356;49.068;8.658;2022-12-07T01:30:02;100040.19;;;17.15;39.77
8637;BME280;4356;49.068;8.658;2022-12-07T01:32:29;100034.13;;;17.13;39.68
8637;BME280;4356;49.068;8.658;2022-12-07T01:34:54;100037.88;;;17.12;39.89
8637;BME280;4356;49.068;8.658;2022-12-07T01:37:20;100029.09;;;17.10;39.86
8637;BME280;4356;49.068;8.658;2022-12-07T01:39:48;100028.69;;;17.07;39.84
8637;BME280;4356;49.068;8.658;2022-12-07T01:42:14;100034.75;;;17.09;39.78
8637;BME280;4356;49.068;8.658;2022-12-07T01:47:48;100025.78;;;17.08;39.67
8637;BME280;4356;49.068;8.658;2022-12-07T01:50:15;100031.41;;;17.07;39.64
8637;BME280;4356;49.068;8.658;2022-12-07T01:52:41;100023.69;;;17.04;39.85
8637;BME280;4356;49.068;8.658;2022-12-07T01:55:11;100028.69;;;17.07;39.91
8637;BME280;4356;49.068;8.658;2022-12-07T01:57:40;100028.69;;;17.07;39.74
8637;BME280;4356;49.068;8.658;2022-12-07T02:00:08;100027.88;;;17.06;39.89
8637;BME280;4356;49.068;8.658;2022-12-07T02:02:41;100024.53;;;17.04;39.78
8637;BME280;4356;49.068;8.658;2022-12-07T02:05:09;100012.19;;;17.02;39.95
8637;BME280;4356;49.068;8.658;2022-12-07T02:07:36;100003.84;;;17.03;40.09
8637;BME280;4356;49.068;8.658;2022-12-07T02:10:29;100005.72;;;17.03;39.98
8637;BME280;4356;49.068;8.658;2022-12-07T02:13:08;99980.88;;;16.93;40.10
8637;BME280;4356;49.068;8.658;2022-12-07T02:21:07;99993.63;;;16.99;39.86
8637;BME280;4356;49.068;8.658;2022-12-07T02:26:39;99999.44;;;16.96;39.80
8637;BME280;4356;49.068;8.658;2022-12-07T02:29:11;100006.78;;;16.95;40.00
8637;BME280;4356;49.068;8.658;2022-12-07T02:31:44;100003.22;;;16.95;40.00
8637;BME280;4356;49.068;8.658;2022-12-07T02:34:19;100005.50;;;16.91;40.11
8637;BME280;4356;49.068;8.658;2022-12-07T02:36:52;99997.81;;;16.88;39.85
8637;BME280;4356;49.068;8.658;2022-12-07T02:39:25;99999.47;;;16.89;39.66
8637;BME280;4356;49.068;8.658;2022-12-07T02:41:56;100008.22;;;16.91;40.08
8637;BME280;4356;49.068;8.658;2022-12-07T02:44:25;100018.03;;;16.92;39.77
8637;BME280;4356;49.068;8.658;2022-12-07T02:47:01;100008.66;;;16.88;39.79
8637;BME280;4356;49.068;8.658;2022-12-07T02:49:28;100012.41;;;16.94;39.68
8637;BME280;4356;49.068;8.658;2022-12-07T02:51:54;100007.00;;;16.94;39.93
8637;BME280;4356;49.068;8.658;2022-12-07T02:54:21;100003.44;;;16.93;39.94
8637;BME280;4356;49.068;8.658;2022-12-07T02:56:59;99998.00;;;16.93;39.96
8637;BME280;4356;49.068;8.658;2022-12-07T03:00:06;99998.22;;;16.92;39.74
8637;BME280;4356;49.068;8.658;2022-12-07T03:02:58;99990.06;;;16.92;40.00
8637;BME280;4356;49.068;8.658;2022-12-07T03:15:50;99979.81;;;16.87;40.03
8637;BME280;4356;49.068;8.658;2022-12-07T03:18:22;99971.50;;;16.82;40.31
8637;BME280;4356;49.068;8.658;2022-12-07T03:20:51;99965.44;;;16.80;40.28
8637;BME280;4356;49.068;8.658;2022-12-07T03:23:18;99969.63;;;16.83;40.18
8637;BME280;4356;49.068;8.658;2022-12-07T03:25:50;99951.25;;;16.72;39.92
8637;BME280;4356;49.068;8.658;2022-12-07T03:28:19;99973.56;;;16.80;40.03
8637;BME280;4356;49.068;8.658;2022-12-07T03:30:52;99980.47;;;16.83;39.78
8637;BME280;4356;49.068;8.658;2022-12-07T03:33:27;99981.09;;;16.85;39.90
8637;BME280;4356;49.068;8.658;2022-12-07T03:36:02;99982.13;;;16.84;39.92
8637;BME280;4356;49.068;8.658;2022-12-07T03:38:34;99981.28;;;16.83;40.07
8637;BME280;4356;49.068;8.658;2022-12-07T03:41:23;99976.91;;;16.82;40.08
8637;BME280;4356;49.068;8.658;2022-12-07T03:43:50;99966.50;;;16.79;39.93
8637;BME280;4356;49.068;8.658;2022-12-07T03:46:47;99973.34;;;16.82;39.69
8637;BME280;4356;49.068;8.658;2022-12-07T03:52:08;99962.50;;;16.75;40.11
8637;BME280;4356;49.068;8.658;2022-12-07T03:54:41;99967.72;;;16.77;40.09
8637;BME280;4356;49.068;8.658;2022-12-07T03:57:11;99970.03;;;16.73;40.35
8637;BME280;4356;49.068;8.658;2022-12-07T03:59:38;99969.59;;;16.76;40.08
8637;BME280;4356;49.068;8.658;2022-12-07T04:02:05;99987.34;;;16.79;40.05
8637;BME280;4356;49.068;8.658;2022-12-07T04:04:32;99965.84;;;16.77;39.92
8637;BME280;4356;49.068;8.658;2022-12-07T04:06:58;99969.81;;;16.75;40.12
8637;BME280;4356;49.068;8.658;2022-12-07T04:09:24;99970.44;;;16.77;40.13
8637;BME280;4356;49.068;8.658;2022-12-07T04:11:49;99978.78;;;16.75;40.10
8637;BME280;4356;49.068;8.658;2022-12-07T04:14:15;99973.78;;;16.72;40.04
8637;BME280;4356;49.068;8.658;2022-12-07T04:16:51;99979.41;;;16.71;40.03
8637;BME280;4356;49.068;8.658;2022-12-07T04:19:19;99971.09;;;16.72;39.96
8637;BME280;4356;49.068;8.658;2022-12-07T04:21:46;99975.66;;;16.72;39.71
8637;BME280;4356;49.068;8.658;2022-12-07T04:24:13;99969.41;;;16.71;39.89
8637;BME280;4356;49.068;8.658;2022-12-07T04:26:40;99966.06;;;16.69;40.06
8637;BME280;4356;49.068;8.658;2022-12-07T04:29:07;99970.25;;;16.72;39.78
8637;BME280;4356;49.068;8.658;2022-12-07T04:31:32;99966.69;;;16.71;40.28
8637;BME280;4356;49.068;8.658;2022-12-07T04:33:58;99961.25;;;16.71;39.99
8637;BME280;4356;49.068;8.658;2022-12-07T04:36:23;99968.56;;;16.71;39.92
8637;BME280;4356;49.068;8.658;2022-12-07T04:38:49;99965.41;;;16.67;39.77
8637;BME280;4356;49.068;8.658;2022-12-07T04:41:15;99966.06;;;16.69;39.74
8637;BME280;4356;49.068;8.658;2022-12-07T04:43:40;99963.75;;;16.66;40.03
8637;BME280;4356;49.068;8.658;2022-12-07T04:46:06;99967.75;;;16.70;40.01
8637;BME280;4356;49.068;8.658;2022-12-07T04:48:31;99955.84;;;16.65;40.07
8637;BME280;4356;49.068;8.658;2022-12-07T04:50:57;99946.84;;;16.64;39.86
8637;BME280;4356;49.068;8.658;2022-12-07T04:53:22;99965.41;;;16.67;40.36
8637;BME280;4356;49.068;8.658;2022-12-07T04:55:48;99961.91;;;16.67;39.88
8637;BME280;4356;49.068;8.658;2022-12-07T04:58:14;99951.44;;;16.64;39.83
8637;BME280;4356;49.068;8.658;2022-12-07T05:00:40;99964.41;;;16.68;39.89
8637;BME280;4356;49.068;8.658;2022-12-07T05:03:06;99966.25;;;16.68;40.01
8637;BME280;4356;49.068;8.658;2022-12-07T05:05:31;99962.06;;;16.65;39.97
8637;BME280;4356;49.068;8.658;2022-12-07T05:07:57;99954.78;;;16.59;40.13
8637;BME280;4356;49.068;8.658;2022-12-07T05:10:22;99959.56;;;16.64;40.06
8637;BME280;4356;49.068;8.658;2022-12-07T05:12:48;99961.25;;;16.65;39.96
8637;BME280;4356;49.068;8.658;2022-12-07T05:15:14;99950.38;;;16.58;40.00
8637;BME280;4356;49.068;8.658;2022-12-07T05:17:41;99959.78;;;16.62;40.31
8637;BME280;4356;49.068;8.658;2022-12-07T05:20:07;99957.91;;;16.63;40.15
8637;BME280;4356;49.068;8.658;2022-12-07T05:22:33;99958.31;;;16.60;40.10
8637;BME280;4356;49.068;8.658;2022-12-07T05:24:58;99950.19;;;16.53;40.18
8637;BME280;4356;49.068;8.658;2022-12-07T05:27:24;99958.13;;;16.61;40.26
8637;BME280;4356;49.068;8.658;2022-12-07T05:29:50;99955.41;;;16.61;40.18
8637;BME280;4356;49.068;8.658;2022-12-07T05:32:16;99943.53;;;16.56;40.00
8637;BME280;4356;49.068;8.658;2022-12-07T05:34:42;99956.03;;;16.57;40.33
8637;BME280;4356;49.068;8.658;2022-12-07T05:37:07;99964.81;;;16.59;40.08
8637;BME280;4356;49.068;8.658;2022-12-07T05:39:33;99957.06;;;16.49;40.13
8637;BME280;4356;49.068;8.658;2022-12-07T05:41:58;99962.91;;;16.53;39.96
8637;BME280;4356;49.068;8.658;2022-12-07T05:44:43;99960.81;;;16.55;40.15
8637;BME280;4356;49.068;8.658;2022-12-07T05:47:10;99960.63;;;16.56;40.33
8637;BME280;4356;49.068;8.658;2022-12-07T05:49:35;99951.66;;;16.56;40.21
8637;BME280;4356;49.068;8.658;2022-12-07T05:52:02;99944.75;;;16.53;40.35
8637;BME280;4356;49.068;8.658;2022-12-07T05:54:27;99952.06;;;16.53;40.10
8637;BME280;4356;49.068;8.658;2022-12-07T05:56:53;99926.78;;;16.39;40.22
8637;BME280;4356;49.068;8.658;2022-12-07T05:59:19;99937.44;;;16.47;40.21
8637;BME280;4356;49.068;8.658;2022-12-07T06:01:56;99945.59;;;16.47;40.34
8637;BME280;4356;49.068;8.658;2022-12-07T06:04:27;99947.69;;;16.52;40.07
8637;BME280;4356;49.068;8.658;2022-12-07T06:06:53;99952.69;;;16.48;40.13
8637;BME280;4356;49.068;8.658;2022-12-07T06:09:20;99953.31;;;16.50;40.36
8637;BME280;4356;49.068;8.658;2022-12-07T06:11:46;99936.16;;;16.36;40.35
8637;BME280;4356;49.068;8.658;2022-12-07T06:14:30;99957.72;;;16.58;40.31
8637;BME280;4356;49.068;8.658;2022-12-07T06:16:56;99955.81;;;16.58;40.29
8637;BME280;4356;49.068;8.658;2022-12-07T06:19:22;99956.88;;;16.57;39.91
8637;BME280;4356;49.068;8.658;2022-12-07T06:21:47;99957.50;;;16.66;40.25
8637;BME280;4356;49.068;8.658;2022-12-07T06:24:14;99952.91;;;16.66;40.09
8637;BME280;4356;49.068;8.658;2022-12-07T06:26:40;99967.75;;;16.70;40.02
8637;BME280;4356;49.068;8.658;2022-12-07T06:29:06;99964.38;;;16.75;39.90
8637;BME280;4356;49.068;8.658;2022-12-07T06:31:32;99962.31;;;16.77;39.94
8637;BME280;4356;49.068;8.658;2022-12-07T06:33:59;99961.25;;;16.78;39.74
8637;BME280;4356;49.068;8.658;2022-12-07T06:36:25;99956.03;;;16.76;39.69
8637;BME280;4356;49.068;8.658;2022-12-07T06:38:50;99962.91;;;16.85;39.84
8637;BME280;4356;49.068;8.658;2022-12-07T06:41:16;99965.22;;;16.88;39.67
8637;BME280;4356;49.068;8.658;2022-12-07T06:43:41;99958.13;;;16.87;39.53
8637;BME280;4356;49.068;8.658;2022-12-07T06:46:07;99941.00;;;16.80;39.43
8637;BME280;4356;49.068;8.658;2022-12-07T06:48:33;99957.91;;;16.95;39.51
8637;BME280;4356;49.068;8.658;2022-12-07T06:50:58;99957.47;;;16.98;39.50
8637;BME280;4356;49.068;8.658;2022-12-07T06:53:24;99966.47;;;16.99;39.50
8637;BME280;4356;49.068;8.658;2022-12-07T06:55:50;99965.63;;;16.98;39.29
8637;BME280;4356;49.068;8.658;2022-12-07T06:58:17;99951.84;;;16.93;39.34
8637;BME280;4356;49.068;8.658;2022-12-07T07:00:43;99970.22;;;17.04;39.29
8637;BME280;4356;49.068;8.658;2022-12-07T07:03:09;99972.06;;;17.10;39.14
8637;BME280;4356;49.068;8.658;2022-12-07T07:05:36;99968.34;;;17.11;39.27
8637;BME280;4356;49.068;8.658;2022-12-07T07:08:02;99967.50;;;17.11;39.27
8637;BME280;4356;49.068;8.658;2022-12-07T07:10:28;99969.97;;;17.12;39.28
8637;BME280;4356;49.068;8.658;2022-12-07T07:12:53;99943.69;;;17.06;39.08
8637;BME280;4356;49.068;8.658;2022-12-07T07:15:19;99965.59;;;17.18;39.13
8637;BME280;4356;49.068;8.658;2022-12-07T07:17:44;99968.09;;;17.19;38.75
8637;BME280;4356;49.068;8.658;2022-12-07T07:20:10;99971.22;;;17.23;39.13
8637;BME280;4356;49.068;8.658;2022-12-07T07:22:36;99965.38;;;17.26;39.04
8637;BME280;4356;49.068;8.658;2022-12-07T07:25:02;99944.72;;;17.12;39.12
8637;BME280;4356;49.068;8.658;2022-12-07T07:27:27;99961.81;;;17.25;38.96
8637;BME280;4356;49.068;8.658;2022-12-07T07:29:53;99949.28;;;17.18;38.87
8637;BME280;4356;49.068;8.658;2022-12-07T07:32:18;99960.78;;;17.20;38.89
8637;BME280;4356;49.068;8.658;2022-12-07T07:34:44;99970.16;;;17.30;38.89
8637;BME280;4356;49.068;8.658;2022-12-07T07:37:10;99969.53;;;17.28;38.94
8637;BME280;4356;49.068;8.658;2022-12-07T07:39:37;99973.50;;;17.32;38.73
8637;BME280;4356;49.068;8.658;2022-12-07T07:42:03;99957.44;;;17.24;38.89
8637;BME280;4356;49.068;8.658;2022-12-07T07:44:29;99977.69;;;17.35;38.74
8637;BME280;4356;49.068;8.658;2022-12-07T07:46:55;99950.75;;;17.20;38.86
8637;BME280;4356;49.068;8.658;2022-12-07T07:49:20;99982.69;;;17.38;38.90
8637;BME280;4356;49.068;8.658;2022-12-07T07:51:46;99969.28;;;17.43;38.83
8637;BME280;4356;49.068;8.658;2022-12-07T07:54:11;99971.81;;;17.51;38.29
8637;BME280;4356;49.068;8.658;2022-12-07T07:56:37;99966.75;;;17.61;38.53
8637;BME280;4356;49.068;8.658;2022-12-07T07:59:02;99971.53;;;17.79;38.24
8637;BME280;4356;49.068;8.658;2022-12-07T08:01:28;99957.88;;;17.85;37.86
8637;BME280;4356;49.068;8.658;2022-12-07T08:03:53;99972.56;;;18.15;37.71
8637;BME280;4356;49.068;8.658;2022-12-07T08:06:19;99974.34;;;18.34;37.32
8637;BME280;4356;49.068;8.658;2022-12-07T08:08:45;99971.13;;;18.51;37.03
8637;BME280;4356;49.068;8.658;2022-12-07T08:11:10;99981.06;;;18.70;36.84
8637;BME280;4356;49.068;8.658;2022-12-07T08:13:36;99990.31;;;18.87;36.57
8637;BME280;4356;49.068;8.658;2022-12-07T08:16:08;99985.53;;;19.07;36.25
8637;BME280;4356;49.068;8.658;2022-12-07T08:18:40;99984.50;;;19.26;36.16
8637;BME280;4356;49.068;8.658;2022-12-07T08:21:08;99986.09;;;19.40;36.11
8637;BME280;4356;49.068;8.658;2022-12-07T08:23:34;99992.81;;;19.56;35.94
8637;BME280;4356;49.068;8.658;2022-12-07T08:26:05;99993.06;;;19.72;35.69
8637;BME280;4356;49.068;8.658;2022-12-07T08:28:31;99970.41;;;19.72;35.42
8637;BME280;4356;49.068;8.658;2022-12-07T08:31:02;99977.72;;;19.89;35.09
8637;BME280;4356;49.068;8.658;2022-12-07T08:33:27;99999.94;;;20.11;35.10
8637;BME280;4356;49.068;8.658;2022-12-07T08:35:53;99989.78;;;20.18;34.97
8637;BME280;4356;49.068;8.658;2022-12-07T08:38:19;99998.75;;;20.36;34.59
8637;BME280;4356;49.068;8.658;2022-12-07T08:40:44;99993.81;;;20.45;34.48
8637;BME280;4356;49.068;8.658;2022-12-07T08:43:10;99995.50;;;20.58;34.15
8637;BME280;4356;49.068;8.658;2022-12-07T08:45:35;100002.91;;;20.69;34.31
8637;BME280;4356;49.068;8.658;2022-12-07T08:48:08;99998.28;;;20.81;34.08
8637;BME280;4356;49.068;8.658;2022-12-07T08:50:36;100003.78;;;20.92;33.99
8637;BME280;4356;49.068;8.658;2022-12-07T08:53:03;99983.81;;;20.92;33.83
8637;BME280;4356;49.068;8.658;2022-12-07T08:55:30;99987.28;;;20.99;33.62
8637;BME280;4356;49.068;8.658;2022-12-07T08:57:58;99983.63;;;21.05;33.65
8637;BME280;4356;49.068;8.658;2022-12-07T09:00:24;100008.47;;;21.26;33.71
8637;BME280;4356;49.068;8.658;2022-12-07T09:02:50;100002.63;;;21.34;33.73
8637;BME280;4356;49.068;8.658;2022-12-07T09:05:16;100003.13;;;21.43;33.61
8637;BME280;4356;49.068;8.658;2022-12-07T09:07:43;100011.56;;;21.53;33.44
8637;BME280;4356;49.068;8.658;2022-12-07T09:10:10;100003.81;;;21.62;33.48
8637;BME280;4356;49.068;8.658;2022-12-07T09:12:36;99994.53;;;21.63;33.13
8637;BME280;4356;49.068;8.658;2022-12-07T09:15:01;100011.25;;;21.78;33.01
8637;BME280;4356;49.068;8.658;2022-12-07T09:17:27;99997.59;;;21.78;32.98
8637;BME280;4356;49.068;8.658;2022-12-07T09:19:57;100009.03;;;21.86;32.89
8637;BME280;4356;49.068;8.658;2022-12-07T09:22:22;100006.75;;;21.95;32.87
8637;BME280;4356;49.068;8.658;2022-12-07T09:24:48;100006.59;;;22.01;32.80
8637;BME280;4356;49.068;8.658;2022-12-07T09:27:13;100009.72;;;22.05;32.85
8637;BME280;4356;49.068;8.658;2022-12-07T09:29:39;100004.94;;;22.12;32.85
8637;BME280;4356;49.068;8.658;2022-12-07T09:32:04;100011.09;;;22.19;32.69
8637;BME280;4356;49.068;8.658;2022-12-07T09:34:31;100008.09;;;22.20;32.81
8637;BME280;4356;49.068;8.658;2022-12-07T09:36:57;100012.97;;;22.30;32.80
8637;BME280;4356;49.068;8.658;2022-12-07T09:39:23;100008.63;;;22.34;32.79
8637;BME280;4356;49.068;8.658;2022-12-07T09:41:48;100002.44;;;22.38;32.58
8637;BME280;4356;49.068;8.658;2022-12-07T09:44:21;100001.69;;;22.43;32.70
8637;BME280;4356;49.068;8.658;2022-12-07T09:46:48;100002.63;;;22.48;32.62
8637;BME280;4356;49.068;8.658;2022-12-07T09:49:28;99984.19;;;22.44;32.59
8637;BME280;4356;49.068;8.658;2022-12-07T09:52:25;99980.97;;;22.47;32.37
8637;BME280;4356;49.068;8.658;2022-12-07T09:54:52;100000.44;;;22.62;32.35
8637;BME280;4356;49.068;8.658;2022-12-07T09:57:29;99997.22;;;22.65;32.63
8637;BME280;4356;49.068;8.658;2022-12-07T10:00:02;99996.47;;;22.70;32.42
8637;BME280;4356;49.068;8.658;2022-12-07T10:02:38;99988.75;;;22.67;32.69
8637;BME280;4356;49.068;8.658;2022-12-07T10:05:12;99999.56;;;22.73;32.61
8637;BME280;4356;49.068;8.658;2022-12-07T10:07:38;99996.06;;;22.78;32.68
8637;BME280;4356;49.068;8.658;2022-12-07T10:10:13;99995.34;;;22.82;32.52
8637;BME280;4356;49.068;8.658;2022-12-07T10:12:54;99995.91;;;22.84;32.57
8637;BME280;4356;49.068;8.658;2022-12-07T10:15:20;99994.09;;;22.90;32.61
8637;BME280;4356;49.068;8.658;2022-12-07T10:17:51;99990.25;;;22.91;32.62
8637;BME280;4356;49.068;8.658;2022-12-07T10:22:58;99987.94;;;22.99;32.67
8637;BME280;4356;49.068;8.658;2022-12-07T10:25:28;99986.03;;;23.00;32.52
8637;BME280;4356;49.068;8.658;2022-12-07T10:28:21;99986.53;;;22.97;32.37
8637;BME280;4356;49.068;8.658;2022-12-07T10:30:59;99983.63;;;23.03;32.41
8637;BME280;4356;49.068;8.658;2022-12-07T10:33:34;99984.19;;;23.05;32.29
8637;BME280;4356;49.068;8.658;2022-12-07T10:36:17;99968.59;;;23.06;32.21
8637;BME280;4356;49.068;8.658;2022-12-07T10:38:52;99976.88;;;23.11;32.34
8637;BME280;4356;49.068;8.658;2022-12-07T10:41:18;99973.91;;;23.12;32.15
8637;BME280;4356;49.068;8.658;2022-12-07T10:43:50;99977.28;;;23.19;32.29
8637;BME280;4356;49.068;8.658;2022-12-07T10:46:52;99965.00;;;23.22;31.88
8637;BME280;4356;49.068;8.658;2022-12-07T10:49:41;99957.63;;;23.22;31.67
8637;BME280;4356;49.068;8.658;2022-12-07T10:55:03;99960.78;;;23.31;32.07
8637;BME280;4356;49.068;8.658;2022-12-07T11:00:19;99955.63;;;23.34;31.89
8637;BME280;4356;49.068;8.658;2022-12-07T11:06:33;99948.13;;;23.30;31.98
8637;BME280;4356;49.068;8.658;2022-12-07T11:22:11;99920.75;;;22.64;32.92
8637;BME280;4356;49.068;8.658;2022-12-07T11:27:38;99931.41;;;22.48;33.28
8637;BME280;4356;49.068;8.658;2022-12-07T11:30:16;99904.50;;;22.29;33.30
8637;BME280;4356;49.068;8.658;2022-12-07T11:35:57;99926.25;;;22.19;33.77
8637;BME280;4356;49.068;8.658;2022-12-07T11:38:50;99919.41;;;22.05;34.00
8637;BME280;4356;49.068;8.658;2022-12-07T11:41:29;99921.22;;;21.99;33.86
8637;BME280;4356;49.068;8.658;2022-12-07T11:44:07;99921.59;;;21.91;34.06
8637;BME280;4356;49.068;8.658;2022-12-07T11:52:16;99900.34;;;21.70;34.37
8637;BME280;4356;49.068;8.658;2022-12-07T11:54:45;99900.22;;;21.65;34.43
8637;BME280;4356;49.068;8.658;2022-12-07T11:57:39;99900.13;;;21.60;34.37
8637;BME280;4356;49.068;8.658;2022-12-07T12:00:14;99903.34;;;21.57;34.57
8637;BME280;4356;49.068;8.658;2022-12-07T12:02:49;99905.75;;;21.54;34.72
8637;BME280;4356;49.068;8.658;2022-12-07T12:05:21;99894.72;;;21.48;34.83
8637;BME280;4356;49.068;8.658;2022-12-07T12:16:43;99880.94;;;21.32;35.12
8637;BME280;4356;49.068;8.658;2022-12-07T12:22:18;99873.00;;;21.19;35.24
8637;BME280;4356;49.068;8.658;2022-12-07T12:24:51;99865.75;;;21.13;35.15
8637;BME280;4356;49.068;8.658;2022-12-07T12:27:25;99858.53;;;21.07;35.16
8637;BME280;4356;49.068;8.658;2022-12-07T12:30:29;99870.03;;;21.09;35.00
8637;BME280;4356;49.068;8.658;2022-12-07T12:32:44;99866.94;;;21.05;35.11
8637;BME280;4356;49.068;8.658;2022-12-07T12:35:30;99871.38;;;21.06;35.12
8637;BME280;4356;49.068;8.658;2022-12-07T12:38:32;99876.22;;;21.04;35.57
8637;BME280;4356;49.068;8.658;2022-12-07T12:41:01;99877.53;;;21.02;35.62
8637;BME280;4356;49.068;8.658;2022-12-07T12:43:49;99875.50;;;20.97;35.66
8637;BME280;4356;49.068;8.658;2022-12-07T12:49:10;99875.97;;;20.94;35.87
8637;BME280;4356;49.068;8.658;2022-12-07T12:51:41;99869.34;;;20.90;35.62
8637;BME280;4356;49.068;8.658;2022-12-07T12:54:23;99870.97;;;20.91;35.58
8637;BME280;4356;49.068;8.658;2022-12-07T12:59:30;99870.88;;;20.86;35.60
8637;BME280;4356;49.068;8.658;2022-12-07T13:24:09;99811.88;;;20.51;35.81
8637;BME280;4356;49.068;8.658;2022-12-07T13:26:42;99838.47;;;20.67;35.79
8637;BME280;4356;49.068;8.658;2022-12-07T13:29:17;99818.50;;;20.55;35.93
8637;BME280;4356;49.068;8.658;2022-12-07T13:31:54;99838.91;;;20.64;35.97
8637;BME280;4356;49.068;8.658;2022-12-07T13:34:40;99832.53;;;20.58;35.85
8637;BME280;4356;49.068;8.658;2022-12-07T13:37:26;99827.88;;;20.59;35.71
8637;BME280;4356;49.068;8.658;2022-12-07T13:39:55;99829.19;;;20.56;35.85
8637;BME280;4356;49.068;8.658;2022-12-07T13:42:32;99831.09;;;20.56;35.95
8637;BME280;4356;49.068;8.658;2022-12-07T13:45:00;99823.84;;;20.49;35.83
8637;BME280;4356;49.068;8.658;2022-12-07T13:47:46;99823.84;;;20.49;35.85
8637;BME280;4356;49.068;8.658;2022-12-07T13:50:29;99830.97;;;20.51;35.84
8637;BME280;4356;49.068;8.658;2022-12-07T13:52:57;99818.50;;;20.43;35.90
8637;BME280;4356;49.068;8.658;2022-12-07T13:55:23;99833.91;;;20.49;35.77
8637;BME280;4356;49.068;8.658;2022-12-07T13:57:52;99825.88;;;20.54;35.49
8637;BME280;4356;49.068;8.658;2022-12-07T14:00:20;99825.03;;;20.65;35.65
8637;BME280;4356;49.068;8.658;2022-12-07T14:05:27;99825.38;;;20.92;35.32
8637;BME280;4356;49.068;8.658;2022-12-07T14:12:52;99827.16;;;21.09;34.94
8637;BME280;4356;49.068;8.658;2022-12-07T14:15:28;99831.56;;;21.10;34.94
8637;BME280;4356;49.068;8.658;2022-12-07T14:17:55;99838.31;;;21.08;34.87
8637;BME280;4356;49.068;8.658;2022-12-07T14:20:33;99810.41;;;20.94;34.78
8637;BME280;4356;49.068;8.658;2022-12-07T14:22:59;99832.16;;;21.01;34.72
8637;BME280;4356;49.068;8.658;2022-12-07T14:25:26;99834.28;;;20.99;34.78
8637;BME280;4356;49.068;8.658;2022-12-07T14:27:57;99809.69;;;20.87;34.63
8637;BME280;4356;49.068;8.658;2022-12-07T14:30:31;99830.34;;;20.95;34.55
8637;BME280;4356;49.068;8.658;2022-12-07T14:33:02;99827.28;;;20.91;34.59
8637;BME280;4356;49.068;8.658;2022-12-07T14:35:29;99834.06;;;20.89;34.82
8637;BME280;4356;49.068;8.658;2022-12-07T14:37:55;99823.69;;;20.91;34.80
8637;BME280;4356;49.068;8.658;2022-12-07T14:40:26;99835.75;;;21.01;34.87
8637;BME280;4356;49.068;8.658;2022-12-07T14:43:08;99833.22;;;21.11;34.60
8637;BME280;4356;49.068;8.658;2022-12-07T14:45:34;99829.03;;;21.20;34.52
8637;BME280;4356;49.068;8.658;2022-12-07T14:48:00;99816.66;;;21.29;34.59
8637;BME280;4356;49.068;8.658;2022-12-07T14:50:25;99825.84;;;21.52;34.23
8637;BME280;4356;49.068;8.658;2022-12-07T14:52:55;99830.53;;;21.68;33.73
8637;BME280;4356;49.068;8.658;2022-12-07T14:55:26;99830.88;;;21.83;33.75
8637;BME280;4356;49.068;8.658;2022-12-07T14:57:53;99834.38;;;21.95;33.14
8637;BME280;4356;49.068;8.658;2022-12-07T15:00:19;99830.16;;;22.04;33.54
8637;BME280;4356;49.068;8.658;2022-12-07T15:02:48;99830.81;;;22.11;33.14
8637;BME280;4356;49.068;8.658;2022-12-07T15:05:15;99824.13;;;22.18;33.10
8637;BME280;4356;49.068;8.658;2022-12-07T15:07:41;99825.22;;;22.17;33.14
8637;BME280;4356;49.068;8.658;2022-12-07T15:10:17;99827.69;;;22.19;33.09
8637;BME280;4356;49.068;8.658;2022-12-07T15:12:43;99818.97;;;22.05;33.06
8637;BME280;4356;49.068;8.658;2022-12-07T15:15:09;99825.34;;;22.11;33.20
8637;BME280;4356;49.068;8.658;2022-12-07T15:17:35;99819.47;;;22.02;33.01
8637;BME280;4356;49.068;8.658;2022-12-07T15:20:00;99816.41;;;21.99;33.11
8637;BME280;4356;49.068;8.658;2022-12-07T15:22:26;99819.84;;;21.94;33.27